createdAt,value
2023-02-08T00:01:25.853Z,14.82
2023-02-08T00:06:23.918Z,15.95
2023-02-08T00:08:52.179Z,14.95
2023-02-08T00:11:20.491Z,14.32
2023-02-08T00:13:48.947Z,15.68
2023-02-08T00:16:18.350Z,14.68
2023-02-08T00:18:46.806Z,14.93
2023-02-08T00:21:17.101Z,15.93
2023-02-08T00:23:47.613Z,19.63
2023-02-08T00:26:16.481Z,12.85
2023-02-08T00:28:45.743Z,15.93
2023-02-08T00:31:14.055Z,16.23
2023-02-08T00:33:42.490Z,12.90
2023-02-08T00:36:12.563Z,13.40
2023-02-08T00:38:43.072Z,16.17
2023-02-08T00:41:12.907Z,16.48
2023-02-08T00:43:41.192Z,16.58
2023-02-08T00:46:10.937Z,15.30
2023-02-08T00:48:39.453Z,16.33
2023-02-08T00:51:09.743Z,15.32
2023-02-08T00:53:38.959Z,14.55
2023-02-08T00:56:08.609Z,17.00
2023-02-08T00:58:38.427Z,13.18
2023-02-08T01:01:07.676Z,16.13
2023-02-08T01:03:37.270Z,16.02
2023-02-08T01:06:09.092Z,15.05
2023-02-08T01:08:37.819Z,18.33
2023-02-08T01:11:10.075Z,16.38
2023-02-08T01:13:41.026Z,16.83
2023-02-08T01:16:12.645Z,13.82
2023-02-08T01:18:42.071Z,17.40
2023-02-08T01:21:12.963Z,17.15
2023-02-08T01:26:11.187Z,15.65
2023-02-08T01:28:41.645Z,16.20
2023-02-08T01:31:12.524Z,16.60
2023-02-08T01:33:40.915Z,14.60
2023-02-08T01:36:11.007Z,17.58
2023-02-08T01:38:40.211Z,16.15
2023-02-08T01:41:10.090Z,16.33
2023-02-08T01:44:06.787Z,19.20
2023-02-08T01:46:36.932Z,16.58
2023-02-08T01:49:11.343Z,18.48
2023-02-08T01:51:42.388Z,17.80
2023-02-08T01:54:14.060Z,17.30
2023-02-08T01:56:46.031Z,19.88
2023-02-08T01:59:19.754Z,16.50
2023-02-08T02:01:50.408Z,17.52
2023-02-08T02:04:18.903Z,18.23
2023-02-08T02:06:52.517Z,20.50
2023-02-08T02:09:24.357Z,17.08
2023-02-08T02:11:54.666Z,19.00
2023-02-08T02:14:25.179Z,17.42
2023-02-08T02:16:53.609Z,18.77
2023-02-08T02:19:32.956Z,18.38
2023-02-08T02:22:12.924Z,19.45
2023-02-08T02:25:11.442Z,16.05
2023-02-08T02:28:03.138Z,19.75
2023-02-08T02:33:40.930Z,17.58
2023-02-08T02:36:19.042Z,17.63
2023-02-08T02:39:02.873Z,20.05
2023-02-08T02:41:57.839Z,19.85
2023-02-08T02:44:35.157Z,18.08
2023-02-08T02:47:11.691Z,17.10
2023-02-08T02:49:48.617Z,17.55
2023-02-08T02:52:20.690Z,20.27
2023-02-08T02:54:53.081Z,17.27
2023-02-08T02:57:26.418Z,17.45
2023-02-08T02:59:54.921Z,16.55
2023-02-08T03:02:23.778Z,17.58
2023-02-08T03:04:56.620Z,16.25
2023-02-08T03:07:49.400Z,18.10
2023-02-08T03:10:31.291Z,19.02
2023-02-08T03:13:04.850Z,19.02
2023-02-08T03:15:47.396Z,18.17
2023-02-08T03:18:28.716Z,19.25
2023-02-08T03:21:04.930Z,16.90
2023-02-08T03:23:41.732Z,18.27
2023-02-08T03:26:17.457Z,18.73
2023-02-08T03:28:52.896Z,15.95
2023-02-08T03:31:27.659Z,17.23
2023-02-08T03:34:01.720Z,19.10
2023-02-08T03:36:33.476Z,17.73
2023-02-08T03:39:06.628Z,19.63
2023-02-08T03:41:37.991Z,18.67
2023-02-08T03:44:11.469Z,17.20
2023-02-08T03:46:43.950Z,17.35
2023-02-08T03:49:18.032Z,16.77
2023-02-08T03:51:48.077Z,14.70
2023-02-08T03:54:20.286Z,17.08
2023-02-08T03:56:55.501Z,18.88
2023-02-08T03:59:28.230Z,17.85
2023-02-08T04:02:01.100Z,16.73
2023-02-08T04:04:33.740Z,18.13
2023-02-08T04:07:03.699Z,21.25
2023-02-08T04:09:31.927Z,19.30
2023-02-08T04:12:00.188Z,17.50
2023-02-08T04:14:28.439Z,20.33
2023-02-08T04:16:57.641Z,19.92
2023-02-08T04:19:25.856Z,16.50
2023-02-08T04:21:54.261Z,16.15
2023-02-08T04:24:24.017Z,18.95
2023-02-08T04:26:52.618Z,18.15
2023-02-08T04:29:20.835Z,19.58
2023-02-08T04:31:49.643Z,18.10
2023-02-08T04:34:17.986Z,17.92
2023-02-08T04:36:46.346Z,20.02
2023-02-08T04:39:14.679Z,17.63
2023-02-08T04:41:44.292Z,18.80
2023-02-08T04:44:15.201Z,16.92
2023-02-08T04:46:43.479Z,18.23
2023-02-08T04:49:11.768Z,24.85
2023-02-08T04:51:40.044Z,20.88
2023-02-08T04:54:08.617Z,18.95
2023-02-08T04:56:37.653Z,19.88
2023-02-08T04:59:07.295Z,18.83
2023-02-08T05:01:35.585Z,21.83
2023-02-08T05:04:03.923Z,21.85
2023-02-08T05:06:32.221Z,22.60
2023-02-08T05:09:00.541Z,18.08
2023-02-08T05:11:29.015Z,19.15
2023-02-08T05:13:57.243Z,18.73
2023-02-08T05:16:27.116Z,18.42
2023-02-08T05:18:56.897Z,17.40
2023-02-08T05:21:25.338Z,20.08
2023-02-08T05:23:54.083Z,20.85
2023-02-08T05:26:22.296Z,21.42
2023-02-08T05:28:50.640Z,19.50
2023-02-08T05:31:22.009Z,22.08
2023-02-08T05:33:52.059Z,19.15
2023-02-08T05:36:21.368Z,22.23
2023-02-08T05:38:49.839Z,22.70
2023-02-08T05:41:18.230Z,21.38
2023-02-08T05:43:47.010Z,24.23
2023-02-08T05:46:15.320Z,19.00
2023-02-08T05:48:43.834Z,21.88
2023-02-08T05:51:13.628Z,19.35
2023-02-08T05:53:43.455Z,22.00
2023-02-08T05:56:12.598Z,22.52
2023-02-08T05:58:41.562Z,22.35
2023-02-08T06:01:11.608Z,22.15
2023-02-08T06:03:40.832Z,22.23
2023-02-08T06:06:11.228Z,17.80
2023-02-08T06:08:41.397Z,22.88
2023-02-08T06:11:09.831Z,19.23
2023-02-08T06:13:38.989Z,23.08
2023-02-08T06:16:08.108Z,21.52
2023-02-08T06:18:36.412Z,23.02
2023-02-08T06:21:04.939Z,21.63
2023-02-08T06:23:33.548Z,20.50
2023-02-08T06:26:03.714Z,20.05
2023-02-08T06:28:32.011Z,20.30
2023-02-08T06:31:00.278Z,21.17
2023-02-08T06:33:28.466Z,22.98
2023-02-08T06:35:56.757Z,22.30
2023-02-08T06:38:25.000Z,22.75
2023-02-08T06:40:53.223Z,22.80
2023-02-08T06:43:22.963Z,22.45
2023-02-08T06:45:51.309Z,21.83
2023-02-08T06:48:19.830Z,22.83
2023-02-08T06:50:48.164Z,22.05
2023-02-08T06:53:16.624Z,23.92
2023-02-08T06:55:49.274Z,19.55
2023-02-08T06:58:17.746Z,28.00
2023-02-08T07:00:47.816Z,24.33
2023-02-08T07:03:17.527Z,24.25
2023-02-08T07:06:03.506Z,22.38
2023-02-08T07:08:32.273Z,22.42
2023-02-08T07:11:00.600Z,22.42
2023-02-08T07:13:28.861Z,23.80
2023-02-08T07:15:58.494Z,21.30
2023-02-08T07:18:26.954Z,22.92
2023-02-08T07:20:55.179Z,22.85
2023-02-08T07:23:23.427Z,22.40
2023-02-08T07:25:59.399Z,23.75
2023-02-08T07:28:27.611Z,24.73
2023-02-08T07:30:56.526Z,23.17
2023-02-08T07:33:27.035Z,22.67
2023-02-08T07:35:55.362Z,20.25
2023-02-08T07:38:23.619Z,25.83
2023-02-08T07:40:52.419Z,24.15
2023-02-08T07:43:20.707Z,22.35
2023-02-08T07:45:57.860Z,25.38
2023-02-08T07:48:27.458Z,22.23
2023-02-08T07:50:55.713Z,21.40
2023-02-08T07:53:23.952Z,24.80
2023-02-08T07:55:52.176Z,24.33
2023-02-08T07:58:20.496Z,23.75
2023-02-08T08:00:48.746Z,25.60
2023-02-08T08:03:16.952Z,21.50
2023-02-08T08:05:46.726Z,22.30
2023-02-08T08:08:15.121Z,20.92
2023-02-08T08:10:43.330Z,24.08
2023-02-08T08:13:11.663Z,23.02
2023-02-08T08:15:40.545Z,23.95
2023-02-08T08:18:09.291Z,22.83
2023-02-08T08:20:37.755Z,23.40
2023-02-08T08:23:07.665Z,25.25
2023-02-08T08:25:36.199Z,23.77
2023-02-08T08:28:04.619Z,23.77
2023-02-08T08:30:32.916Z,22.60
2023-02-08T08:33:01.335Z,22.48
2023-02-08T08:35:29.524Z,21.90
2023-02-08T08:37:57.674Z,23.38
2023-02-08T08:40:27.457Z,23.83
2023-02-08T08:42:55.686Z,24.58
2023-02-08T08:45:24.190Z,26.55
2023-02-08T08:47:52.593Z,22.63
2023-02-08T08:50:20.916Z,22.50
2023-02-08T08:52:49.121Z,21.50
2023-02-08T08:55:17.528Z,21.92
2023-02-08T08:57:47.149Z,24.67
2023-02-08T09:00:16.335Z,21.08
2023-02-08T09:02:44.595Z,23.50
2023-02-08T09:05:15.402Z,22.77
2023-02-08T09:07:43.611Z,24.48
2023-02-08T09:10:11.992Z,26.30
2023-02-08T09:12:40.498Z,21.75
2023-02-08T09:15:11.712Z,23.00
2023-02-08T09:17:39.900Z,23.20
2023-02-08T09:20:08.601Z,22.05
2023-02-08T09:22:36.800Z,20.98
2023-02-08T09:25:06.115Z,22.85
2023-02-08T09:27:34.361Z,20.65
2023-02-08T09:30:02.686Z,22.42
2023-02-08T09:32:35.123Z,23.60
2023-02-08T09:35:03.652Z,20.35
2023-02-08T09:37:31.965Z,19.27
2023-02-08T09:40:00.628Z,19.42
2023-02-08T09:42:38.680Z,20.83
2023-02-08T09:45:30.966Z,21.30
2023-02-08T09:48:07.411Z,21.67
2023-02-08T09:50:42.453Z,19.60
2023-02-08T09:53:14.789Z,21.80
2023-02-08T09:55:47.211Z,20.48
2023-02-08T09:58:22.463Z,20.60
2023-02-08T10:00:51.559Z,23.20
2023-02-08T10:03:34.801Z,20.15
2023-02-08T10:06:03.929Z,20.98
2023-02-08T10:08:35.562Z,21.33
2023-02-08T10:11:21.789Z,22.08
2023-02-08T10:14:06.165Z,22.17
2023-02-08T10:16:51.908Z,22.25
2023-02-08T10:19:34.712Z,23.25
2023-02-08T10:22:18.001Z,23.58
2023-02-08T10:25:20.455Z,21.20
2023-02-08T10:28:03.376Z,21.75
2023-02-08T10:30:42.061Z,20.92
2023-02-08T10:33:17.527Z,22.25
2023-02-08T10:35:50.663Z,21.33
2023-02-08T10:38:29.696Z,19.17
2023-02-08T10:41:04.382Z,20.63
2023-02-08T10:43:40.270Z,19.33
2023-02-08T10:46:15.417Z,23.15
2023-02-08T10:48:58.689Z,19.58
2023-02-08T10:51:29.868Z,19.73
2023-02-08T10:53:59.128Z,22.05
2023-02-08T10:56:47.077Z,21.08
2023-02-08T10:59:18.518Z,21.13
2023-02-08T11:01:48.996Z,25.50
2023-02-08T11:04:18.463Z,19.73
2023-02-08T11:06:50.358Z,21.52
2023-02-08T11:09:29.141Z,20.67
2023-02-08T11:11:59.760Z,19.30
2023-02-08T11:14:45.652Z,21.90
2023-02-08T11:17:28.219Z,21.25
2023-02-08T11:19:57.590Z,21.67
2023-02-08T11:22:31.050Z,19.38
2023-02-08T11:25:00.867Z,18.55
2023-02-08T11:27:34.658Z,20.45
2023-02-08T11:30:21.493Z,20.98
2023-02-08T11:33:09.864Z,19.90
2023-02-08T11:35:38.267Z,22.25
2023-02-08T11:38:17.157Z,22.85
2023-02-08T11:40:47.062Z,18.50
2023-02-08T11:43:22.804Z,18.98
2023-02-08T11:45:51.882Z,21.75
2023-02-08T11:48:25.349Z,20.00
2023-02-08T11:50:59.748Z,21.08
2023-02-08T11:53:36.553Z,20.15
2023-02-08T11:56:20.358Z,19.77
2023-02-08T11:59:07.780Z,22.05
2023-02-08T12:01:37.681Z,19.65
2023-02-08T12:04:08.672Z,22.13
2023-02-08T12:07:07.596Z,19.95
2023-02-08T12:10:04.046Z,22.35
2023-02-08T12:12:45.642Z,23.08
2023-02-08T12:18:17.013Z,23.88
2023-02-08T12:20:47.064Z,22.63
2023-02-08T12:23:26.927Z,23.50
2023-02-08T12:26:06.676Z,22.88
2023-02-08T12:28:47.330Z,25.48
2023-02-08T12:31:25.758Z,24.00
2023-02-08T12:34:03.395Z,23.40
2023-02-08T12:36:45.916Z,24.25
2023-02-08T12:39:47.642Z,24.15
2023-02-08T12:42:30.334Z,25.17
2023-02-08T12:45:36.975Z,22.80
2023-02-08T12:48:22.285Z,24.27
2023-02-08T12:50:54.930Z,23.80
2023-02-08T12:53:31.053Z,26.77
2023-02-08T12:56:02.300Z,26.05
2023-02-08T12:58:35.329Z,25.33
2023-02-08T13:01:10.031Z,24.63
2023-02-08T13:03:46.058Z,23.58
2023-02-08T13:06:19.024Z,26.52
2023-02-08T13:08:53.441Z,29.27
2023-02-08T13:11:28.430Z,23.05
2023-02-08T13:14:03.708Z,23.75
2023-02-08T13:16:36.798Z,25.65
2023-02-08T13:19:25.049Z,27.70
2023-02-08T13:21:54.886Z,26.65
2023-02-08T13:24:35.700Z,26.05
2023-02-08T13:27:06.989Z,26.13
2023-02-08T13:32:09.377Z,23.67
2023-02-08T13:34:44.758Z,25.05
2023-02-08T13:37:27.335Z,25.10
2023-02-08T13:40:04.005Z,27.17
2023-02-08T13:42:37.404Z,22.10
2023-02-08T13:45:09.456Z,24.67
2023-02-08T13:47:44.771Z,21.48
2023-02-08T13:50:54.785Z,22.48
2023-02-08T13:54:04.450Z,25.85
2023-02-08T13:56:41.818Z,24.75
2023-02-08T13:59:26.324Z,23.05
2023-02-08T14:02:26.937Z,22.73
2023-02-08T14:05:18.610Z,21.83
2023-02-08T14:07:49.113Z,25.27
2023-02-08T14:10:39.619Z,22.00
2023-02-08T14:13:22.389Z,21.00
2023-02-08T14:16:28.459Z,21.88
2023-02-08T14:19:00.330Z,22.15
2023-02-08T14:21:34.295Z,20.63
2023-02-08T14:24:07.375Z,23.38
2023-02-08T14:26:37.556Z,22.65
2023-02-08T14:29:07.800Z,21.80
2023-02-08T14:31:44.759Z,20.92
2023-02-08T14:34:29.660Z,22.17
2023-02-08T14:37:04.273Z,17.95
2023-02-08T14:39:34.612Z,23.10
2023-02-08T14:42:05.673Z,22.23
2023-02-08T14:45:02.854Z,23.08
2023-02-08T14:47:56.362Z,20.67
2023-02-08T14:50:30.886Z,22.17
2023-02-08T14:53:04.368Z,20.90
2023-02-08T14:55:38.042Z,22.92
2023-02-08T14:58:08.749Z,19.50
2023-02-08T15:00:39.094Z,19.73
2023-02-08T15:03:15.114Z,18.38
2023-02-08T15:05:57.464Z,21.65
2023-02-08T15:08:26.195Z,19.75
2023-02-08T15:10:55.925Z,19.85
2023-02-08T15:13:26.008Z,22.85
2023-02-08T15:15:56.750Z,21.88
2023-02-08T15:18:29.347Z,21.02
2023-02-08T15:21:03.478Z,20.70
2023-02-08T15:23:31.921Z,18.42
2023-02-08T15:26:02.162Z,18.20
2023-02-08T15:28:32.589Z,17.95
2023-02-08T15:31:02.522Z,17.35
2023-02-08T15:33:32.007Z,16.50
2023-02-08T15:36:06.288Z,17.60
2023-02-08T15:38:38.491Z,20.27
2023-02-08T15:41:09.203Z,18.45
2023-02-08T15:43:39.256Z,17.75
2023-02-08T15:46:17.173Z,23.17
2023-02-08T15:48:46.963Z,16.05
2023-02-08T15:51:20.231Z,20.77
2023-02-08T15:53:51.388Z,20.23
2023-02-08T15:56:35.972Z,20.25
2023-02-08T15:59:07.709Z,19.13
2023-02-08T16:01:36.148Z,19.25
2023-02-08T16:04:08.423Z,18.67
2023-02-08T16:06:41.464Z,16.90
2023-02-08T16:09:20.233Z,17.55
2023-02-08T16:11:50.471Z,20.48
2023-02-08T16:14:25.283Z,17.70
2023-02-08T16:16:57.683Z,17.25
2023-02-08T16:19:28.507Z,17.55
2023-02-08T16:22:16.928Z,20.33
2023-02-08T16:24:46.974Z,25.15
2023-02-08T16:27:25.416Z,75.90
2023-02-08T16:29:54.174Z,77.18
2023-02-08T16:32:29.502Z,96.13
2023-02-08T16:34:58.465Z,65.93
2023-02-08T16:37:31.065Z,63.38
2023-02-08T16:40:02.459Z,39.53
2023-02-08T16:45:19.490Z,43.45
2023-02-08T16:47:53.633Z,57.47
2023-02-08T16:50:23.656Z,68.97
2023-02-08T16:52:56.537Z,64.00
2023-02-08T16:55:27.970Z,81.25
2023-02-08T16:57:57.932Z,79.60
2023-02-08T17:00:28.088Z,98.20
2023-02-08T17:02:56.981Z,61.60
2023-02-08T17:05:28.438Z,48.65
2023-02-08T17:10:29.264Z,28.60
2023-02-08T17:13:13.437Z,25.55
2023-02-08T17:15:47.168Z,30.10
2023-02-08T17:18:15.906Z,21.58
2023-02-08T17:20:44.801Z,20.35
2023-02-08T17:23:15.899Z,21.50
2023-02-08T17:25:44.898Z,19.27
2023-02-08T17:28:18.533Z,19.98
2023-02-08T17:30:48.152Z,18.92
2023-02-08T17:33:19.130Z,17.08
2023-02-08T17:35:48.978Z,16.02
2023-02-08T17:38:19.157Z,22.25
2023-02-08T17:40:47.641Z,19.27
2023-02-08T17:43:16.253Z,20.05
2023-02-08T17:45:45.634Z,18.30
2023-02-08T17:48:14.543Z,17.38
2023-02-08T17:50:45.151Z,20.30
2023-02-08T17:53:13.817Z,17.23
2023-02-08T17:55:44.771Z,20.42
2023-02-08T17:58:13.598Z,20.10
2023-02-08T18:00:42.176Z,19.45
2023-02-08T18:03:10.571Z,17.88
2023-02-08T18:05:38.961Z,19.98
2023-02-08T18:08:07.186Z,21.42
2023-02-08T18:10:35.436Z,19.13
2023-02-08T18:13:05.104Z,16.50
2023-02-08T18:15:33.352Z,19.30
2023-02-08T18:18:01.642Z,20.80
2023-02-08T18:20:29.829Z,18.17
2023-02-08T18:22:58.679Z,18.10
2023-02-08T18:25:27.219Z,19.77
2023-02-08T18:27:55.664Z,18.38
2023-02-08T18:30:26.177Z,18.67
2023-02-08T18:32:54.470Z,17.42
2023-02-08T18:35:22.696Z,19.33
2023-02-08T18:37:51.283Z,19.83
2023-02-08T18:40:19.944Z,18.02
2023-02-08T18:42:48.257Z,21.25
2023-02-08T18:45:16.663Z,17.70
2023-02-08T18:47:46.236Z,19.65
2023-02-08T18:50:14.629Z,20.67
2023-02-08T18:52:42.871Z,17.60
2023-02-08T18:55:11.456Z,18.02
2023-02-08T18:57:40.160Z,18.38
2023-02-08T19:00:09.549Z,18.35
2023-02-08T19:02:39.522Z,20.55
2023-02-08T19:05:09.580Z,18.25
2023-02-08T19:07:39.349Z,20.27
2023-02-08T19:10:08.808Z,20.45
2023-02-08T19:12:37.904Z,21.20
2023-02-08T19:15:06.682Z,19.23
2023-02-08T19:17:34.881Z,18.05
2023-02-08T19:20:03.168Z,20.05
2023-02-08T19:22:32.951Z,20.40
2023-02-08T19:25:01.221Z,19.75
2023-02-08T19:27:29.573Z,17.95
2023-02-08T19:29:58.008Z,17.30
2023-02-08T19:32:26.343Z,19.88
2023-02-08T19:34:54.587Z,17.85
2023-02-08T19:37:22.839Z,18.58
2023-02-08T19:39:52.458Z,18.30
2023-02-08T19:42:20.921Z,17.23
2023-02-08T19:44:49.130Z,22.05
2023-02-08T19:47:17.381Z,19.13
2023-02-08T19:49:45.596Z,18.08
2023-02-08T19:52:16.146Z,16.92
2023-02-08T19:54:44.383Z,18.40
2023-02-08T19:57:15.973Z,19.52
2023-02-08T20:02:13.045Z,58.53
2023-02-08T20:04:42.286Z,98.88
2023-02-08T20:07:10.785Z,64.57
2023-02-08T20:09:39.382Z,106.75
2023-02-08T20:12:08.126Z,85.40
2023-02-08T20:14:37.808Z,76.82
2023-02-08T20:17:06.104Z,47.83
2023-02-08T20:19:37.643Z,74.20
2023-02-08T20:24:33.991Z,66.25
2023-02-08T20:27:02.371Z,89.80
2023-02-08T20:29:30.766Z,142.95
2023-02-08T20:32:00.548Z,103.47
2023-02-08T20:34:28.781Z,88.90
2023-02-08T20:37:12.406Z,66.95
2023-02-08T20:39:40.683Z,226.63
2023-02-08T20:42:09.915Z,235.35
2023-02-08T20:44:38.161Z,199.50
2023-02-08T20:47:08.984Z,198.48
2023-02-08T20:49:38.896Z,148.93
2023-02-08T20:52:07.209Z,108.20
2023-02-08T20:54:35.412Z,92.28
2023-02-08T20:57:03.604Z,66.35
2023-02-08T20:59:31.979Z,57.72
2023-02-08T21:02:00.231Z,44.60
2023-02-08T21:04:29.907Z,35.78
2023-02-08T21:06:58.685Z,34.08
2023-02-08T21:09:26.992Z,28.58
2023-02-08T21:11:55.196Z,21.42
2023-02-08T21:14:24.015Z,24.15
2023-02-08T21:16:55.836Z,21.17
2023-02-08T21:19:24.875Z,20.55
2023-02-08T21:21:56.040Z,19.05
2023-02-08T21:24:24.940Z,17.33
2023-02-08T21:26:53.765Z,16.20
2023-02-08T21:29:22.616Z,19.10
2023-02-08T21:31:53.567Z,16.02
2023-02-08T21:34:23.133Z,15.13
2023-02-08T21:36:51.484Z,13.98
2023-02-08T21:39:23.107Z,15.00
2023-02-08T21:44:21.113Z,16.08
2023-02-08T21:46:49.345Z,15.23
2023-02-08T21:49:35.078Z,16.02
2023-02-08T21:54:53.935Z,15.52
2023-02-08T21:57:24.700Z,14.80
2023-02-08T21:59:57.291Z,10.70
2023-02-08T22:02:28.279Z,14.90
2023-02-08T22:04:58.206Z,14.82
2023-02-08T22:07:27.152Z,13.68
2023-02-08T22:09:57.016Z,14.52
2023-02-08T22:12:25.292Z,12.55
2023-02-08T22:14:53.539Z,14.43
2023-02-08T22:17:21.895Z,13.23
2023-02-08T22:19:50.164Z,15.57
2023-02-08T22:22:18.433Z,15.20
2023-02-08T22:24:46.684Z,13.57
2023-02-08T22:27:16.361Z,15.15
2023-02-08T22:29:44.601Z,14.45
2023-02-08T22:32:16.961Z,11.60
2023-02-08T22:34:45.412Z,12.75
2023-02-08T22:37:14.019Z,12.50
2023-02-08T22:39:42.790Z,12.15
2023-02-08T22:42:14.090Z,14.07
2023-02-08T22:44:45.308Z,12.90
2023-02-08T22:47:15.128Z,13.88
2023-02-08T22:49:43.526Z,11.85
2023-02-08T22:52:12.091Z,15.15
2023-02-08T22:54:40.354Z,11.43
2023-02-08T22:57:09.756Z,11.90
2023-02-08T22:59:39.187Z,12.40
2023-02-08T23:02:09.462Z,12.90
2023-02-08T23:04:38.190Z,15.10
2023-02-08T23:07:06.624Z,14.43
2023-02-08T23:09:34.795Z,14.18
2023-02-08T23:12:03.039Z,13.52
2023-02-08T23:14:31.277Z,14.48
2023-02-08T23:16:59.562Z,13.30
2023-02-08T23:19:29.671Z,13.20
2023-02-08T23:21:59.718Z,13.27
2023-02-08T23:24:28.413Z,14.70
2023-02-08T23:26:56.648Z,14.18
2023-02-08T23:29:24.876Z,15.15
2023-02-08T23:31:53.476Z,17.65
2023-02-08T23:34:21.842Z,17.13
2023-02-08T23:36:51.415Z,15.75
2023-02-08T23:39:19.660Z,18.63
2023-02-08T23:41:48.012Z,17.85
2023-02-08T23:44:16.171Z,19.08
2023-02-08T23:46:44.493Z,18.45
2023-02-08T23:49:12.727Z,19.50
2023-02-08T23:51:40.925Z,19.10
2023-02-08T23:54:10.633Z,19.15
2023-02-08T23:56:38.969Z,22.58
2023-02-08T23:59:08.333Z,21.08
